Terminal Aerodrome Forecast
Issued by NWS

Home | Current Version | Previous Version | Text Only | Print | Product List | Glossary On
Versions: 1 2 3 4 5 6 7 8 9 10 11 12 13
906
FTUS42 TJSJ 101725 CCA
TAFIST
TAF COR
TIST 101725Z 1018/1118 12013KT P6SM FEW025 SCT050
     FM102300 10006KT P6SM FEW025
     FM111300 12014G20KT P6SM SCT030=

USA.gov is the U.S. government's official web portal to all federal, state and local government web resources and services.